Terminal Aerodrome Forecast
Issued by NWS

Home | Current Version | Previous Version | Graphics & Text | Print | Product List | Glossary On
Versions: 1 2 3 4 5 6 7 8 9 10 11 12 13
000
FTUS43 KICT 251100
TAFCNU
TAF
KCNU 251120Z 2512/2612 18012KT P6SM BKN200
     FM251500 20019G27KT P6SM SCT250
     FM260200 17010KT P6SM SCT250
     FM260600 18010KT P6SM SCT120=

USA.gov is the U.S. government's official web portal to all federal, state and local government web resources and services.